KACV/ACV METAR and TAF weather

Enter ICAO airport designator
Station Type Date Time Source
KACV METAR 2018/12/10 23:53 UTC NOAA

KACV 102353Z AUTO 32011KT 6SM HZ CLR 12/09 A3026 RMK AO2 SLP253 T01220089 10133 20111 56009


Station Type Date Time Source
KACV Decoded METAR 2018/12/10 23:53 UTC NOAA

ARCATA/EUREKA ARCATA AIRPORT, CA, United States (KACV) 40-59N 124-06W 67M
Dec 10, 2018 - 06:53 PM EST / 2018.12.10 2353 UTC
Wind: from the NW (320 degrees) at 13 MPH (11 KT):0
Visibility: 6 mile(s):0
Sky conditions: clear
Weather: haze
Temperature: 54.0 F (12.2 C)
Dew Point: 48.0 F (8.9 C)
Relative Humidity: 80%
Pressure (altimeter): 30.26 in. Hg (1024 hPa)
Pressure tendency: 0.03 inches (0.9 hPa) lower than three hours ago
ob: KACV 102353Z AUTO 32011KT 6SM HZ CLR 12/09 A3026 RMK AO2 SLP253 T01220089 10133 20111 56009
cycle: 0

Station Type Date Time Source
KACV TAF 2018/12/10 20:58 UTC NOAA

TAF
AMD KACV 101958Z 1020/1118 33006KT 6SM HZ FEW009
FM102200 33005KT P6SM SCT025 BKN200
FM111000 VRB04KT P6SM OVC250
FM111500 VRB04KT P6SM OVC100


Example: see airport list